Time;durP1;ratioP1;P1;durP2;ratioP2;P2;SDS_P1;SDS_P2;PMS_P1;PMS_P2;Temp;Humidity;BMP_temperature;BMP_pressure;BME280_temperature;BME280_humidity;BME280_pressure;Samples;Min_cycle;Max_cycle;Signal;HPM_P1;HPM_P2
2022/09/09 00:02:04;;;;;;;12.70;5.55;;;16.20;99.90;;;;;;5012999;28;20037;-60
2022/09/09 00:04:36;;;;;;;8.18;4.93;;;16.20;99.90;;;;;;5012870;28;20026;-59
2022/09/09 00:07:23;;;;;;;12.85;4.80;;;16.30;99.90;;;;;;5012593;28;20025;-59
2022/09/09 00:09:54;;;;;;;10.95;4.63;;;16.40;99.90;;;;;;5012658;28;20079;-59
2022/09/09 00:12:29;;;;;;;13.43;5.20;;;16.30;99.90;;;;;;5012037;28;20475;-59
2022/09/09 00:15:00;;;;;;;8.00;4.55;;;16.40;99.90;;;;;;5012773;28;20416;-59
2022/09/09 00:17:56;;;;;;;9.85;4.43;;;16.30;99.90;;;;;;5013106;28;20091;-59
2022/09/09 00:20:37;;;;;;;10.52;4.53;;;16.30;99.90;;;;;;5022710;28;20037;-59
2022/09/09 00:23:32;;;;;;;9.68;4.38;;;16.40;99.90;;;;;;5012373;28;20034;-59
2022/09/09 00:26:17;;;;;;;12.38;4.85;;;16.40;99.90;;;;;;5011656;28;20513;-59
2022/09/09 00:28:52;;;;;;;10.13;5.28;;;16.50;99.90;;;;;;5019369;28;20389;-59
2022/09/09 00:31:27;;;;;;;15.00;5.40;;;16.40;99.90;;;;;;5032266;28;20032;-59
2022/09/09 00:33:53;;;;;;;6.97;4.68;;;16.40;99.90;;;;;;5032240;28;20057;-59
2022/09/09 00:36:26;;;;;;;11.20;4.80;;;16.40;99.90;;;;;;5028158;28;20088;-59
2022/09/09 00:38:56;;;;;;;8.30;4.40;;;16.40;99.90;;;;;;5032575;28;20037;-59
2022/09/09 00:41:22;;;;;;;10.13;5.10;;;16.30;99.90;;;;;;5051895;28;20029;-59
2022/09/09 00:44:18;;;;;;;11.88;6.18;;;16.40;99.90;;;;;;5051740;28;20425;-60
2022/09/09 00:46:49;;;;;;;10.52;5.03;;;16.40;99.90;;;;;;5051822;28;20021;-59
2022/09/09 00:49:53;;;;;;;12.13;5.28;;;16.20;99.90;;;;;;5051853;28;20051;-59
2022/09/09 00:52:41;;;;;;;12.63;5.90;;;16.20;99.90;;;;;;5051998;28;20083;-59
2022/09/09 00:55:15;;;;;;;11.38;6.20;;;16.10;99.90;;;;;;5051344;28;20067;-59
2022/09/09 00:57:41;;;;;;;10.55;5.10;;;16.00;99.90;;;;;;5051708;28;20029;-59
2022/09/09 01:00:35;;;;;;;11.93;6.00;;;15.70;99.90;;;;;;5051856;28;20025;-60
2022/09/09 01:03:24;;;;;;;10.40;6.20;;;15.60;99.90;;;;;;5051769;28;20032;-59
2022/09/09 01:06:03;;;;;;;10.20;6.38;;;15.70;99.90;;;;;;5051689;28;20052;-59
2022/09/09 01:09:05;;;;;;;11.60;5.60;;;15.60;99.90;;;;;;5051496;28;20032;-59
2022/09/09 01:11:42;;;;;;;12.93;5.82;;;15.80;99.90;;;;;;5051937;28;20385;-59
2022/09/09 01:14:35;;;;;;;12.60;5.63;;;15.90;99.90;;;;;;5052033;28;20060;-59
2022/09/09 01:17:11;;;;;;;10.00;5.38;;;15.80;99.90;;;;;;5050512;28;20049;-59
2022/09/09 01:19:42;;;;;;;10.13;5.75;;;15.80;99.90;;;;;;5051612;28;20522;-59
2022/09/09 01:22:45;;;;;;;9.90;5.80;;;15.80;99.90;;;;;;5051584;28;20053;-59
2022/09/09 01:25:25;;;;;;;13.55;6.15;;;15.80;99.90;;;;;;5051150;28;20029;-59
2022/09/09 01:27:54;;;;;;;8.15;5.43;;;15.80;99.90;;;;;;5051521;28;20057;-59
2022/09/09 01:30:21;;;;;;;8.32;5.10;;;15.90;99.90;;;;;;5051619;28;20036;-59
2022/09/09 01:32:58;;;;;;;12.07;5.57;;;15.90;99.90;;;;;;5051825;28;20021;-59
2022/09/09 01:35:48;;;;;;;10.43;5.30;;;15.90;99.90;;;;;;5051490;28;20029;-59
2022/09/09 01:38:15;;;;;;;10.82;4.60;;;15.70;99.90;;;;;;5050859;28;20484;-59
2022/09/09 01:40:41;;;;;;;9.20;5.22;;;15.70;99.90;;;;;;5051676;28;20021;-59
2022/09/09 01:43:07;;;;;;;10.15;5.57;;;15.70;99.90;;;;;;5051364;28;20036;-59
2022/09/09 01:45:33;;;;;;;12.45;6.28;;;15.60;99.90;;;;;;5051244;28;20028;-59
2022/09/09 01:48:00;;;;;;;13.32;5.68;;;15.50;99.90;;;;;;5053210;28;20032;-59
2022/09/09 01:50:26;;;;;;;8.98;5.10;;;15.40;99.90;;;;;;5037241;28;20033;-59
2022/09/09 01:52:58;;;;;;;11.07;6.10;;;15.50;99.90;;;;;;5055092;28;20025;-59
2022/09/09 01:56:02;;;;;;;9.85;5.72;;;15.30;99.90;;;;;;5055052;28;20097;-59
2022/09/09 01:58:46;;;;;;;15.35;7.50;;;15.40;99.90;;;;;;5055021;28;20049;-59
2022/09/09 02:01:23;;;;;;;13.07;7.40;;;15.40;99.90;;;;;;5055274;28;20037;-60
2022/09/09 02:03:53;;;;;;;10.65;6.25;;;15.40;99.90;;;;;;5034571;28;20029;-59
2022/09/09 02:06:35;;;;;;;11.25;5.72;;;15.30;99.90;;;;;;5033602;28;20498;-59
2022/09/09 02:09:05;;;;;;;10.23;6.32;;;15.30;99.90;;;;;;5031837;28;20116;-59
2022/09/09 02:11:32;;;;;;;11.45;6.15;;;15.10;99.90;;;;;;5030551;28;20092;-60
2022/09/09 02:14:02;;;;;;;10.35;5.82;;;15.00;99.90;;;;;;5015286;28;20080;-59
2022/09/09 02:16:42;;;;;;;9.05;5.88;;;15.00;99.90;;;;;;5030309;28;20093;-59
2022/09/09 02:19:13;;;;;;;12.63;6.50;;;14.90;99.90;;;;;;5015003;28;20409;-59
2022/09/09 02:21:41;;;;;;;12.57;6.18;;;14.90;99.90;;;;;;5028610;28;20056;-59
2022/09/09 02:24:11;;;;;;;10.18;5.63;;;15.00;99.90;;;;;;5034802;28;20059;-59
2022/09/09 02:26:44;;;;;;;10.38;6.15;;;14.90;99.90;;;;;;5033445;28;20029;-59
2022/09/09 02:29:16;;;;;;;9.02;5.22;;;14.90;99.90;;;;;;5034596;28;20033;-59
2022/09/09 02:31:46;;;;;;;8.75;5.97;;;14.90;99.90;;;;;;5034430;28;20478;-59
2022/09/09 02:34:14;;;;;;;9.27;5.70;;;15.10;99.90;;;;;;5034747;28;20032;-59
2022/09/09 02:36:43;;;;;;;12.77;6.38;;;15.10;99.90;;;;;;5033890;28;20041;-59
2022/09/09 02:39:10;;;;;;;12.45;6.60;;;15.20;99.90;;;;;;5036907;28;20495;-59
2022/09/09 02:41:39;;;;;;;9.52;6.20;;;15.30;99.90;;;;;;5034262;28;20083;-59
2022/09/09 02:44:13;;;;;;;13.95;7.05;;;15.40;99.90;;;;;;5033321;28;20072;-59
2022/09/09 02:46:42;;;;;;;13.20;6.00;;;15.40;99.90;;;;;;5034463;28;20025;-59
2022/09/09 02:49:41;;;;;;;8.68;5.65;;;15.30;99.90;;;;;;5034262;28;20026;-59
2022/09/09 02:52:11;;;;;;;11.43;5.05;;;15.20;99.90;;;;;;5033838;28;20030;-59
2022/09/09 02:54:40;;;;;;;11.00;5.70;;;15.00;99.90;;;;;;5034207;28;20026;-59
2022/09/09 02:57:17;;;;;;;10.27;5.43;;;15.20;99.90;;;;;;5034142;28;20034;-59
2022/09/09 02:59:44;;;;;;;9.15;5.50;;;15.00;99.90;;;;;;5033318;28;20060;-59
2022/09/09 03:02:11;;;;;;;11.35;5.18;;;15.00;99.90;;;;;;5033900;28;20096;-59
2022/09/09 03:04:37;;;;;;;9.85;5.82;;;15.00;99.90;;;;;;5033911;28;20076;-59
2022/09/09 03:07:03;;;;;;;8.73;4.45;;;15.20;99.90;;;;;;5033789;28;20108;-59
2022/09/09 03:09:30;;;;;;;10.05;4.43;;;15.20;99.90;;;;;;5024853;28;20101;-59
2022/09/09 03:11:56;;;;;;;9.25;5.10;;;15.40;99.90;;;;;;5013853;28;20041;-59
2022/09/09 03:14:24;;;;;;;9.90;4.47;;;15.50;99.90;;;;;;5013775;28;20028;-59
2022/09/09 03:16:51;;;;;;;14.00;5.45;;;15.50;99.90;;;;;;5013579;28;20089;-59
2022/09/09 03:19:18;;;;;;;8.02;4.55;;;15.50;99.90;;;;;;5013258;28;20079;-57
2022/09/09 03:21:45;;;;;;;9.15;4.60;;;15.60;99.90;;;;;;5013411;28;20064;-59
2022/09/09 03:24:10;;;;;;;10.45;4.40;;;15.60;99.90;;;;;;5013518;28;20030;-59
2022/09/09 03:26:37;;;;;;;9.88;4.43;;;15.80;99.90;;;;;;5013969;28;20033;-59
2022/09/09 03:29:06;;;;;;;9.98;4.13;;;15.80;99.90;;;;;;5013500;28;20034;-59
2022/09/09 03:31:36;;;;;;;10.52;4.85;;;15.70;99.90;;;;;;5013500;28;20109;-59
2022/09/09 03:34:02;;;;;;;10.13;4.40;;;15.60;99.90;;;;;;5013122;28;20149;-59
2022/09/09 03:36:29;;;;;;;9.55;4.10;;;15.60;99.90;;;;;;5013254;28;20109;-59
2022/09/09 03:38:55;;;;;;;8.60;4.03;;;15.70;99.90;;;;;;5015301;28;20495;-59
2022/09/09 03:41:24;;;;;;;9.85;4.55;;;15.70;99.90;;;;;;5053166;28;20067;-59
2022/09/09 03:43:51;;;;;;;9.10;4.50;;;15.80;99.90;;;;;;5052880;28;20033;-59
2022/09/09 03:46:21;;;;;;;12.02;4.68;;;15.60;99.90;;;;;;5049929;28;20101;-59
2022/09/09 03:48:47;;;;;;;9.98;5.18;;;15.60;99.90;;;;;;5032929;28;20032;-59
2022/09/09 03:51:13;;;;;;;9.75;4.57;;;15.50;99.90;;;;;;5032944;28;20029;-60
2022/09/09 03:53:39;;;;;;;11.40;4.80;;;15.50;99.90;;;;;;5032908;28;20473;-59
2022/09/09 03:56:06;;;;;;;8.15;4.40;;;15.40;99.90;;;;;;5026853;28;20022;-59
2022/09/09 03:58:37;;;;;;;12.32;4.78;;;15.50;99.90;;;;;;5029318;28;20108;-59
2022/09/09 04:01:13;;;;;;;15.13;4.85;;;15.50;99.90;;;;;;5033089;28;20409;-59
2022/09/09 04:03:39;;;;;;;11.10;4.75;;;15.50;99.90;;;;;;5032364;28;20486;-59
2022/09/09 04:06:07;;;;;;;11.43;4.47;;;15.40;99.90;;;;;;5032680;28;20030;-59
2022/09/09 04:08:35;;;;;;;14.68;4.80;;;15.50;99.90;;;;;;5032610;28;20508;-59
2022/09/09 04:11:06;;;;;;;6.57;4.20;;;15.40;99.90;;;;;;5031694;28;20026;-60
2022/09/09 04:13:32;;;;;;;8.65;4.20;;;15.40;99.90;;;;;;5032447;28;20029;-59
2022/09/09 04:15:59;;;;;;;12.55;4.95;;;15.50;99.90;;;;;;5032607;28;20018;-59
2022/09/09 04:18:25;;;;;;;9.68;4.22;;;15.60;99.90;;;;;;5020844;28;20096;-59
2022/09/09 04:20:53;;;;;;;8.70;4.40;;;15.60;99.90;;;;;;5012926;28;20058;-59
2022/09/09 04:23:20;;;;;;;9.73;4.70;;;15.50;99.90;;;;;;5012804;28;20441;-59
2022/09/09 04:25:50;;;;;;;9.80;4.45;;;15.50;99.90;;;;;;5012603;28;20035;-59
2022/09/09 04:28:18;;;;;;;9.98;4.40;;;15.50;99.90;;;;;;5012608;28;20025;-59
2022/09/09 04:30:44;;;;;;;8.98;4.28;;;15.50;99.90;;;;;;5012412;28;20490;-59
2022/09/09 04:33:11;;;;;;;9.57;4.38;;;15.30;99.90;;;;;;5011934;28;20026;-59
2022/09/09 04:35:38;;;;;;;10.32;4.80;;;15.30;99.90;;;;;;5012434;28;20121;-59
2022/09/09 04:38:04;;;;;;;9.40;4.53;;;15.40;99.90;;;;;;5012741;28;20091;-59
2022/09/09 04:40:30;;;;;;;8.23;4.00;;;15.40;99.90;;;;;;5040373;28;20032;-59
2022/09/09 04:43:05;;;;;;;6.72;4.13;;;15.50;99.90;;;;;;5050658;28;20078;-60
2022/09/09 04:45:32;;;;;;;9.23;4.03;;;15.60;99.90;;;;;;5051812;28;20028;-60
2022/09/09 04:47:57;;;;;;;9.48;4.18;;;15.60;99.90;;;;;;5051722;28;20044;-59
2022/09/09 04:50:23;;;;;;;10.65;3.95;;;15.60;99.90;;;;;;5047623;28;20492;-59
2022/09/09 04:52:49;;;;;;;8.82;3.50;;;15.60;99.90;;;;;;5031937;28;20378;-59
2022/09/09 04:55:14;;;;;;;9.48;3.97;;;15.70;99.90;;;;;;5031927;28;20406;-60
2022/09/09 04:57:41;;;;;;;8.65;3.85;;;15.80;99.90;;;;;;5031658;28;20033;-60
2022/09/09 05:00:07;;;;;;;12.55;4.20;;;15.90;99.90;;;;;;5031850;28;20032;-60
2022/09/09 05:02:36;;;;;;;9.73;3.53;;;15.80;99.90;;;;;;5031039;28;20375;-59
2022/09/09 05:05:02;;;;;;;9.88;3.40;;;15.90;99.90;;;;;;5031654;28;20122;-59
2022/09/09 05:07:28;;;;;;;8.15;3.10;;;15.90;99.90;;;;;;5032166;28;20057;-60
2022/09/09 05:09:54;;;;;;;13.65;3.30;;;16.00;99.90;;;;;;5031666;28;20116;-60
2022/09/09 05:12:20;;;;;;;9.80;3.05;;;15.90;99.90;;;;;;5030489;28;20498;-59
2022/09/09 05:14:46;;;;;;;11.95;3.72;;;15.90;99.90;;;;;;5031681;28;20523;-60
2022/09/09 05:17:13;;;;;;;10.63;3.60;;;15.90;99.90;;;;;;5031340;28;20141;-59
2022/09/09 05:19:38;;;;;;;11.45;3.63;;;15.80;99.90;;;;;;5031750;28;20022;-59
2022/09/09 05:22:04;;;;;;;8.30;3.67;;;15.80;99.90;;;;;;5033822;28;20076;-60
2022/09/09 05:24:32;;;;;;;11.23;3.72;;;15.80;99.90;;;;;;5035808;28;20395;-59
2022/09/09 05:27:00;;;;;;;9.40;3.60;;;15.80;99.90;;;;;;5035937;28;20034;-59
2022/09/09 05:29:27;;;;;;;10.15;3.45;;;15.80;99.90;;;;;;5036081;28;20089;-59
2022/09/09 05:31:53;;;;;;;9.65;3.22;;;15.80;99.90;;;;;;5035322;28;20029;-59
2022/09/09 05:34:19;;;;;;;11.45;3.60;;;15.90;99.90;;;;;;5035555;28;20040;-59
2022/09/09 05:36:45;;;;;;;9.63;3.20;;;15.80;99.90;;;;;;5035316;28;20029;-60
2022/09/09 05:39:11;;;;;;;8.52;3.17;;;15.80;99.90;;;;;;5038690;28;20040;-61
2022/09/09 05:41:37;;;;;;;7.80;3.13;;;15.90;99.90;;;;;;5055439;28;20481;-60
2022/09/09 05:44:03;;;;;;;8.70;3.63;;;15.90;99.90;;;;;;5055419;28;20074;-59
2022/09/09 05:46:30;;;;;;;11.20;3.55;;;15.80;99.90;;;;;;5030058;28;20017;-59
2022/09/09 05:48:55;;;;;;;6.97;3.20;;;15.70;99.90;;;;;;5015697;28;20034;-59
2022/09/09 05:51:24;;;;;;;10.85;3.28;;;15.60;99.90;;;;;;5016034;28;20030;-59
2022/09/09 05:53:51;;;;;;;12.60;3.10;;;15.50;99.90;;;;;;5015671;28;20433;-60
2022/09/09 05:56:22;;;;;;;12.65;3.50;;;15.40;99.90;;;;;;5014212;28;20391;-60
2022/09/09 05:58:49;;;;;;;9.43;3.38;;;15.60;99.90;;;;;;5015021;28;20053;-60
2022/09/09 06:01:24;;;;;;;7.85;3.00;;;15.60;99.90;;;;;;5023195;28;20393;-61
2022/09/09 06:03:51;;;;;;;14.00;3.92;;;15.70;99.90;;;;;;5035297;28;20033;-61
2022/09/09 06:06:20;;;;;;;9.70;3.50;;;15.50;99.90;;;;;;5035622;28;20025;-62
2022/09/09 06:08:46;;;;;;;8.23;3.33;;;15.50;99.90;;;;;;5034866;28;20505;-59
2022/09/09 06:11:23;;;;;;;9.88;3.50;;;16.70;99.90;;;;;;5034797;28;20049;-59
2022/09/09 06:13:53;;;;;;;9.68;2.90;;;18.30;99.90;;;;;;5034313;28;20063;-60
2022/09/09 06:16:22;;;;;;;6.28;2.40;;;18.80;99.90;;;;;;5034629;28;20034;-61
2022/09/09 06:18:48;;;;;;;9.98;2.80;;;20.00;99.90;;;;;;5034742;28;20040;-60
2022/09/09 06:21:19;;;;;;;6.90;2.00;;;20.00;99.90;;;;;;5034500;28;20045;-60
2022/09/09 06:23:47;;;;;;;10.48;2.20;;;21.70;99.90;;;;;;5034430;28;20029;-59
2022/09/09 06:26:14;;;;;;;8.98;2.30;;;22.30;99.90;;;;;;5034357;28;20052;-60
2022/09/09 06:28:42;;;;;;;10.43;2.83;;;22.80;99.90;;;;;;5034434;28;20036;-60
2022/09/09 06:31:10;;;;;;;9.63;2.60;;;23.00;99.90;;;;;;5034396;28;20033;-61
2022/09/09 06:33:41;;;;;;;8.85;2.20;;;22.60;99.90;;;;;;5033377;28;20026;-60
2022/09/09 06:36:12;;;;;;;6.78;2.20;;;22.80;99.90;;;;;;5034656;28;20433;-61
2022/09/09 06:38:38;;;;;;;7.18;2.30;;;24.40;99.90;;;;;;5034237;28;20033;-60
2022/09/09 06:41:05;;;;;;;7.40;2.63;;;25.20;99.90;;;;;;5052868;28;20029;-61
2022/09/09 06:43:31;;;;;;;7.25;2.40;;;25.30;99.90;;;;;;5052496;28;20535;-61
2022/09/09 06:45:58;;;;;;;6.82;2.25;;;26.00;99.90;;;;;;5053705;28;20021;-61
2022/09/09 06:48:25;;;;;;;7.75;2.15;;;26.30;99.90;;;;;;5054307;28;20035;-61
2022/09/09 06:51:01;;;;;;;6.82;2.30;;;27.20;99.90;;;;;;5053833;28;20032;-59
2022/09/09 06:53:28;;;;;;;6.05;1.70;;;26.30;99.90;;;;;;5053876;28;20032;-62
2022/09/09 06:55:54;;;;;;;6.38;2.00;;;26.80;99.90;;;;;;5053813;28;20033;-61
2022/09/09 06:58:21;;;;;;;6.70;2.25;;;27.00;99.90;;;;;;5053456;28;20091;-61
2022/09/09 07:00:47;;;;;;;5.07;1.80;;;27.60;99.90;;;;;;5053717;28;20025;-60
2022/09/09 07:03:13;;;;;;;7.60;2.20;;;28.30;99.90;;;;;;5053756;28;20029;-61
2022/09/09 07:05:39;;;;;;;5.55;1.67;;;27.70;99.90;;;;;;5053816;28;20389;-61
2022/09/09 07:08:05;;;;;;;7.88;1.88;;;29.40;99.90;;;;;;5042637;28;20040;-61
2022/09/09 07:10:31;;;;;;;9.40;2.33;;;31.90;95.90;;;;;;5033586;28;20043;-62
2022/09/09 07:12:57;;;;;;;5.43;1.90;;;31.20;94.30;;;;;;5032463;28;20108;-61
2022/09/09 07:15:23;;;;;;;6.10;1.67;;;30.60;96.10;;;;;;5033928;28;20079;-62
2022/09/09 07:17:49;;;;;;;5.95;1.95;;;31.30;94.40;;;;;;5022951;28;20041;-62
2022/09/09 07:20:15;;;;;;;5.40;1.67;;;31.10;95.00;;;;;;5030846;28;20022;-62
2022/09/09 07:22:41;;;;;;;6.13;1.90;;;30.20;95.60;;;;;;5033419;28;20104;-63
2022/09/09 07:25:07;;;;;;;4.63;1.67;;;31.80;93.90;;;;;;5033168;28;20131;-62
2022/09/09 07:27:33;;;;;;;8.15;1.75;;;34.10;91.60;;;;;;5028451;28;20029;-62
2022/09/09 07:29:59;;;;;;;9.73;3.13;;;34.70;91.20;;;;;;5013608;28;20544;-62
2022/09/09 07:32:25;;;;;;;6.55;2.03;;;35.10;89.80;;;;;;5018822;28;20025;-62
2022/09/09 07:34:51;;;;;;;7.18;1.95;;;35.70;88.10;;;;;;5022838;28;20029;-62
2022/09/09 07:37:17;;;;;;;9.90;3.58;;;36.50;85.70;;;;;;5033062;28;20037;-62
2022/09/09 07:39:44;;;;;;;5.57;1.90;;;35.40;84.10;;;;;;5040863;28;20033;-62
2022/09/09 07:42:13;;;;;;;8.00;1.95;;;36.00;84.30;;;;;;5051457;28;20029;-62
2022/09/09 07:44:39;;;;;;;6.45;2.08;;;35.80;84.60;;;;;;5052968;28;20025;-62
2022/09/09 07:47:05;;;;;;;5.88;1.77;;;36.40;82.70;;;;;;5052757;28;20060;-62
2022/09/09 07:49:32;;;;;;;6.75;1.70;;;36.60;81.80;;;;;;5053310;28;20051;-62
2022/09/09 07:51:58;;;;;;;5.68;1.77;;;36.70;81.10;;;;;;5053062;28;20044;-62
2022/09/09 07:54:24;;;;;;;8.90;2.20;;;36.10;80.60;;;;;;5052732;28;20025;-62
2022/09/09 07:56:51;;;;;;;5.80;1.88;;;36.60;81.10;;;;;;5052248;28;20488;-62
2022/09/09 07:59:18;;;;;;;5.80;1.88;;;37.00;80.60;;;;;;5053325;28;20056;-62
2022/09/09 08:01:46;;;;;;;4.78;1.65;;;37.30;78.60;;;;;;5052845;28;20033;-62
2022/09/09 08:04:23;;;;;;;8.30;2.20;;;36.30;78.80;;;;;;5052646;28;20104;-61
2022/09/09 08:06:56;;;;;;;5.95;1.70;;;32.00;85.60;;;;;;5052601;28;20021;-61
2022/09/09 08:09:24;;;;;;;4.68;1.90;;;30.50;87.60;;;;;;5052153;28;20082;-61
2022/09/09 08:11:50;;;;;;;5.68;2.13;;;32.10;86.60;;;;;;5052708;28;20434;-61
2022/09/09 08:14:17;;;;;;;6.82;1.80;;;35.10;83.80;;;;;;5042368;28;20156;-62
2022/09/09 08:16:46;;;;;;;6.68;2.03;;;36.50;79.30;;;;;;5021246;28;20095;-62
2022/09/09 08:19:12;;;;;;;6.78;1.83;;;36.80;79.30;;;;;;5012751;28;20487;-62
2022/09/09 08:21:40;;;;;;;4.65;1.60;;;37.10;79.00;;;;;;5012930;28;20045;-61
2022/09/09 08:24:06;;;;;;;7.60;1.92;;;37.60;78.10;;;;;;5012315;28;20037;-61
2022/09/09 08:26:34;;;;;;;5.35;1.67;;;37.20;76.20;;;;;;5012323;28;20026;-61
2022/09/09 08:29:02;;;;;;;5.28;1.95;;;37.00;76.30;;;;;;5012866;28;20052;-61
2022/09/09 08:31:34;;;;;;;5.63;1.80;;;37.90;75.20;;;;;;5012629;28;20029;-61
2022/09/09 08:34:03;;;;;;;6.82;2.10;;;36.90;76.60;;;;;;5012545;28;20041;-61
2022/09/09 08:36:31;;;;;;;7.22;1.90;;;33.90;80.10;;;;;;5012993;28;20036;-61
2022/09/09 08:38:57;;;;;;;5.20;1.70;;;33.70;81.90;;;;;;5014186;28;20026;-62
2022/09/09 08:41:41;;;;;;;7.57;2.22;;;31.60;84.90;;;;;;5052133;28;20497;-61
2022/09/09 08:44:28;;;;;;;6.60;2.28;;;30.00;86.90;;;;;;5051975;28;20428;-61
2022/09/09 08:46:59;;;;;;;7.45;2.30;;;30.30;87.30;;;;;;5043172;28;20025;-61
2022/09/09 08:49:46;;;;;;;4.80;1.73;;;29.60;89.00;;;;;;5012413;28;20022;-61
2022/09/09 08:52:20;;;;;;;6.72;1.80;;;29.10;88.30;;;;;;5013223;28;20026;-62
2022/09/09 08:54:47;;;;;;;5.13;1.70;;;31.00;88.30;;;;;;5023986;28;20482;-61
2022/09/09 08:57:21;;;;;;;11.25;1.98;;;33.40;83.80;;;;;;5011372;28;20092;-61
2022/09/09 08:59:48;;;;;;;5.65;1.63;;;34.30;79.60;;;;;;5012054;28;20026;-62
2022/09/09 09:02:21;;;;;;;8.85;1.80;;;35.30;80.10;;;;;;5011877;28;20138;-61
2022/09/09 09:05:14;;;;;;;7.60;1.90;;;35.70;78.00;;;;;;5017695;28;20029;-61
2022/09/09 09:07:53;;;;;;;4.88;1.55;;;34.60;79.20;;;;;;5012232;28;20087;-62
2022/09/09 09:10:39;;;;;;;14.70;2.83;;;34.20;78.70;;;;;;5022366;28;20496;-61
2022/09/09 09:13:15;;;;;;;15.85;3.67;;;34.20;78.40;;;;;;5031589;28;20506;-61
2022/09/09 09:15:44;;;;;;;4.65;1.50;;;35.20;76.90;;;;;;5018469;28;20056;-61
2022/09/09 09:18:12;;;;;;;8.88;2.92;;;35.70;76.20;;;;;;5012242;28;20046;-61
2022/09/09 09:21:03;;;;;;;7.45;1.98;;;36.80;76.10;;;;;;5023597;28;20033;-61
2022/09/09 09:23:40;;;;;;;6.43;1.80;;;35.40;75.60;;;;;;5031097;28;20025;-60
2022/09/09 09:26:09;;;;;;;11.70;1.95;;;36.40;77.20;;;;;;5031385;28;20038;-60
2022/09/09 09:28:36;;;;;;;9.25;1.90;;;35.90;75.60;;;;;;5031549;28;20072;-60
2022/09/09 09:31:07;;;;;;;5.90;1.77;;;35.00;76.00;;;;;;5031465;28;20108;-60
2022/09/09 09:33:46;;;;;;;5.55;1.80;;;34.60;76.80;;;;;;5031524;28;20030;-60
2022/09/09 09:36:15;;;;;;;6.93;2.05;;;35.00;78.10;;;;;;5031184;28;20101;-60
2022/09/09 09:38:56;;;;;;;6.82;1.92;;;36.40;76.70;;;;;;5031877;28;20037;-60
2022/09/09 09:41:35;;;;;;;7.57;2.00;;;35.20;75.40;;;;;;5032133;28;20033;-60
2022/09/09 09:44:02;;;;;;;6.50;1.63;;;33.70;78.80;;;;;;5031694;28;20064;-60
2022/09/09 09:46:28;;;;;;;4.90;1.60;;;34.30;77.30;;;;;;5031180;28;20096;-60
2022/09/09 09:49:02;;;;;;;7.65;2.00;;;33.20;78.80;;;;;;5031429;28;20108;-60
2022/09/09 09:51:30;;;;;;;7.88;2.00;;;32.70;80.10;;;;;;5031011;28;20029;-60
2022/09/09 09:54:16;;;;;;;5.55;1.70;;;32.40;80.90;;;;;;5031887;28;20145;-61
2022/09/09 09:56:44;;;;;;;7.75;1.50;;;32.20;81.00;;;;;;5031395;28;20496;-60
2022/09/09 09:59:28;;;;;;;7.22;1.70;;;33.10;79.60;;;;;;5031345;28;20079;-60
2022/09/09 10:01:54;;;;;;;6.47;1.67;;;30.80;81.90;;;;;;5031395;28;20033;-60
2022/09/09 10:04:23;;;;;;;5.95;1.75;;;30.00;83.70;;;;;;5031440;28;20036;-61
2022/09/09 10:06:50;;;;;;;5.85;1.75;;;30.40;83.20;;;;;;5031271;28;20018;-60
2022/09/09 10:09:28;;;;;;;4.90;1.50;;;29.70;85.30;;;;;;5033587;28;20394;-60
2022/09/09 10:12:16;;;;;;;5.20;1.85;;;28.70;87.70;;;;;;5034813;28;20048;-59
2022/09/09 10:14:45;;;;;;;8.68;1.85;;;29.20;86.90;;;;;;5034728;28;20025;-60
2022/09/09 10:17:30;;;;;;;6.68;2.00;;;29.60;87.20;;;;;;5034716;28;20079;-60
2022/09/09 10:20:19;;;;;;;8.25;1.73;;;30.70;86.10;;;;;;5034227;28;20034;-60
2022/09/09 10:22:51;;;;;;;7.70;1.90;;;30.80;85.30;;;;;;5050368;28;20441;-60
2022/09/09 10:25:36;;;;;;;9.10;2.03;;;30.20;85.50;;;;;;5033343;28;20116;-60
2022/09/09 10:28:11;;;;;;;5.82;1.60;;;29.30;87.10;;;;;;5034654;28;20028;-60
2022/09/09 10:31:04;;;;;;;6.13;1.98;;;29.00;87.50;;;;;;5034504;28;20026;-60
2022/09/09 10:33:36;;;;;;;6.75;1.80;;;28.00;87.50;;;;;;5034522;28;20052;-60
2022/09/09 10:36:18;;;;;;;5.30;1.52;;;28.10;88.00;;;;;;5034153;28;20042;-60
2022/09/09 10:38:52;;;;;;;4.70;1.60;;;28.80;86.10;;;;;;5034367;28;20033;-60
2022/09/09 10:41:45;;;;;;;5.40;1.50;;;28.70;86.10;;;;;;5034692;28;20559;-60
2022/09/09 10:44:30;;;;;;;4.83;1.40;;;29.70;84.30;;;;;;5034381;28;20381;-60
2022/09/09 10:47:13;;;;;;;8.13;1.95;;;29.60;83.50;;;;;;5034295;28;20045;-60
2022/09/09 10:50:07;;;;;;;5.72;1.55;;;29.90;83.70;;;;;;5033767;28;20385;-60
2022/09/09 10:53:08;;;;;;;5.88;1.92;;;31.20;82.90;;;;;;5034613;28;20064;-60
2022/09/09 10:55:40;;;;;;;5.07;1.85;;;30.90;83.50;;;;;;5033952;28;20038;-60
2022/09/09 10:58:33;;;;;;;4.67;1.60;;;29.40;82.70;;;;;;5034510;28;20398;-59
2022/09/09 11:01:07;;;;;;;4.72;1.50;;;28.10;86.10;;;;;;5033927;28;20051;-60
2022/09/09 11:03:35;;;;;;;5.18;1.40;;;28.20;85.90;;;;;;5033544;28;20511;-60
2022/09/09 11:06:06;;;;;;;7.00;1.70;;;27.90;86.70;;;;;;5034049;28;20025;-60
2022/09/09 11:08:35;;;;;;;4.82;1.60;;;27.50;87.60;;;;;;5034021;28;20026;-60
2022/09/09 11:11:11;;;;;;;8.13;1.75;;;27.70;87.50;;;;;;5033888;28;20030;-60
2022/09/09 11:13:51;;;;;;;5.40;1.65;;;27.90;87.20;;;;;;5033978;28;20053;-60
2022/09/09 11:16:30;;;;;;;4.13;1.50;;;28.90;85.70;;;;;;5032512;28;20415;-60
2022/09/09 11:19:03;;;;;;;6.13;1.38;;;28.00;87.30;;;;;;5032959;28;20061;-60
2022/09/09 11:21:37;;;;;;;4.63;1.70;;;27.70;88.30;;;;;;5033616;28;20057;-60
2022/09/09 11:24:09;;;;;;;5.30;1.40;;;26.50;90.50;;;;;;5032303;28;20455;-60
2022/09/09 11:26:45;;;;;;;6.65;1.90;;;27.70;89.80;;;;;;5049248;28;20048;-60
2022/09/09 11:29:25;;;;;;;6.35;1.50;;;27.40;89.90;;;;;;5033652;28;20056;-60
2022/09/09 11:32:17;;;;;;;6.10;1.58;;;27.40;90.10;;;;;;5033940;28;20435;-59
2022/09/09 11:35:04;;;;;;;5.25;1.63;;;26.90;90.10;;;;;;5033850;28;20022;-60
2022/09/09 11:37:53;;;;;;;7.55;1.73;;;27.20;90.90;;;;;;5033193;28;20048;-60
2022/09/09 11:40:21;;;;;;;3.83;1.30;;;27.50;90.30;;;;;;5045603;28;20025;-60
2022/09/09 11:42:49;;;;;;;5.63;1.50;;;27.10;89.30;;;;;;5053562;28;20021;-60
2022/09/09 11:45:27;;;;;;;5.90;1.25;;;27.30;88.10;;;;;;5053220;28;20027;-60
2022/09/09 11:48:03;;;;;;;3.88;1.10;;;27.10;88.10;;;;;;5052877;28;20043;-59
2022/09/09 11:50:35;;;;;;;5.50;1.70;;;26.60;88.70;;;;;;5053139;28;20108;-60
2022/09/09 11:53:13;;;;;;;6.30;1.63;;;26.70;89.20;;;;;;5052874;28;20068;-60
2022/09/09 11:55:39;;;;;;;5.80;1.25;;;27.40;88.10;;;;;;5052839;28;20108;-60
2022/09/09 11:58:10;;;;;;;4.25;1.40;;;27.70;86.20;;;;;;5053166;28;20159;-60
2022/09/09 12:00:37;;;;;;;5.65;1.42;;;27.40;87.70;;;;;;5052714;28;20078;-60
2022/09/09 12:03:04;;;;;;;5.90;1.20;;;26.40;88.50;;;;;;5052315;28;20114;-60
2022/09/09 12:05:46;;;;;;;5.30;1.30;;;26.60;89.20;;;;;;5052839;28;20101;-60
2022/09/09 12:08:27;;;;;;;6.13;1.55;;;27.50;88.70;;;;;;5052775;28;20543;-60
2022/09/09 12:10:56;;;;;;;4.25;1.40;;;27.70;88.20;;;;;;5051694;28;20480;-60
2022/09/09 12:13:24;;;;;;;6.43;1.50;;;27.40;89.20;;;;;;5052718;28;20524;-60
2022/09/09 12:15:53;;;;;;;6.28;1.25;;;26.80;89.60;;;;;;5052053;28;20021;-59
2022/09/09 12:18:44;;;;;;;4.93;1.50;;;26.20;90.40;;;;;;5052360;28;20088;-60
2022/09/09 12:21:39;;;;;;;6.97;1.42;;;25.90;90.40;;;;;;5052225;28;20049;-60
2022/09/09 12:24:11;;;;;;;5.13;1.52;;;26.00;90.40;;;;;;5052341;28;20025;-60
2022/09/09 12:27:01;;;;;;;6.72;1.70;;;26.10;90.60;;;;;;5052365;28;20024;-60
2022/09/09 12:29:29;;;;;;;4.47;1.33;;;26.00;90.20;;;;;;5052435;28;20515;-60
2022/09/09 12:32:11;;;;;;;4.60;1.30;;;26.40;88.80;;;;;;5050974;28;20029;-60
2022/09/09 12:34:44;;;;;;;8.48;1.52;;;26.20;90.10;;;;;;5052087;28;20040;-60
2022/09/09 12:37:34;;;;;;;5.70;1.80;;;26.10;90.40;;;;;;5052319;28;20033;-60
2022/09/09 12:40:03;;;;;;;4.75;1.67;;;25.70;91.00;;;;;;5052122;28;20500;-60
2022/09/09 12:42:32;;;;;;;6.78;1.70;;;25.80;91.10;;;;;;5052477;28;20083;-60
2022/09/09 12:45:16;;;;;;;5.78;1.50;;;25.90;90.70;;;;;;5051451;28;20437;-60
2022/09/09 12:48:12;;;;;;;5.15;1.40;;;26.30;90.60;;;;;;5051904;28;20045;-60
2022/09/09 12:50:44;;;;;;;5.93;1.70;;;26.10;89.00;;;;;;5050875;28;20037;-60
2022/09/09 12:53:34;;;;;;;4.47;1.50;;;26.30;90.20;;;;;;5051938;28;20025;-60
2022/09/09 12:56:04;;;;;;;4.80;1.45;;;26.20;90.10;;;;;;5049119;28;20512;-60
2022/09/09 12:58:34;;;;;;;7.13;1.48;;;26.60;89.50;;;;;;5051793;28;20041;-60
2022/09/09 13:01:03;;;;;;;5.07;1.40;;;26.40;88.20;;;;;;5051397;28;20021;-60
2022/09/09 13:03:28;;;;;;;3.20;1.20;;;26.40;89.20;;;;;;5051829;28;20020;-60
2022/09/09 13:06:00;;;;;;;4.13;1.40;;;26.50;88.90;;;;;;5052202;28;20103;-60
2022/09/09 13:08:26;;;;;;;4.43;1.60;;;26.40;88.80;;;;;;5051909;28;20029;-60
2022/09/09 13:11:04;;;;;;;4.95;1.50;;;26.30;88.00;;;;;;5051518;28;20547;-60